Terminal Aerodrome Forecast
Issued by NWS

Home | Current Version | Previous Version | Text Only | Print | Product List | Glossary On
Versions: 1 2 3 4 5 6 7 8 9 10 11 12 13 14 15 16 17 18 19 20 21 22
000
FTUS43 KMKX 252339
TAFENW
TAF
KENW 252339Z 2600/2624 16006KT P6SM FEW070
     FM260500 00000KT P6SM FEW070
     FM261300 22004KT P6SM FEW060 SCT250
     FM261800 24008KT P6SM FEW045 SCT250
     FM262200 27008KT P6SM SCT040 BKN060=

USA.gov is the U.S. government's official web portal to all federal, state and local government web resources and services.